Keshena, WI (54135)

8:31 PM CDT on October 24, 2014 (GMT -0500)
Shawano | Change Station
CLOSE
Current Station
Airport
Location: Shawano,
Elevation: 814 ft
Nearby Weather Stations

Elev 814 ft 44.79 °N, 88.56 °W | Updated 11 minutes ago

Mostly Cloudy
Mostly Cloudy
53 °F
Feels Like 53 °F
N
0
Wind Variable Wind from North

Today
High -- | Low -- °F
--% Chance of Precip.
Yesterday
High -- | Low -- °F
Precip. -- in
7:21 AM 5:54 PM
New Moon, 1% visible
Pressure 29.89 in
Visibility 10.0 miles
Clouds Mostly Cloudy 2700 ft
Overcast 3500 ft
Dew Point 49 °F
Humidity 87%
Rainfall 0.00 in
Snow Depth Not available.
UV 0 out of 12
Pollen .90 out of 12
Air Quality Not available.
Flu Activity Sporadic
METAR KEZS 250120Z AUTO 00000KT 10SM BKN027 OVC035 12/10 A2989 RMK AO2 T01170096

More Conditions Fewer Conditions

Pressure 29.89 in
Visibility 10.0 miles
Clouds Mostly Cloudy 2700 ft
Overcast 3500 ft
Dew Point 49 °F
Humidity 87%
Rainfall 0.00 in
Snow Depth Not available.
UV 0 out of 12
Pollen .90 out of 12
Air Quality Not available.
Flu Activity Sporadic
METAR KEZS 250120Z AUTO 00000KT 10SM BKN027 OVC035 12/10 A2989 RMK AO2 T01170096

More Conditions Fewer Conditions

10-Day Weather Forecast

Almanac

Astronomy

Oct. 24, 2014 Rise Set
Actual Time 7:21 AM CDT 5:54 PM CDT
Civil Twilight 6:51 AM CDT 6:24 PM CDT
Nautical Twilight 6:17 AM CDT 6:58 PM CDT
Astronomical Twilight 5:43 AM CDT 7:32 PM CDT
Moon 8:01 AM CDT (10/24) 6:32 PM CDT (10/24)
Length of Visible Light 11h 32m
Length of Day
10h 32m
Tomorrow will be 2m 54s shorter.
New Moon, 1% of the Moon is Illuminated
Today
New Moon
Oct 30
First Quarter
Nov 6
Full
Nov 14
Last Quarter
Nov 22
New

Today's Extremes

State Highs State Lows

Community

WunderPhotos

Upload Photos

1,764,749 photos uploaded!

WunderBlogs® & News

Nearby

Snow Depth

Station Depth Elevation
No new snow has been reported.

Earthquake Activity

City Distance Mag. Time & Date
No recent earthquake activity has been reported nearby.
Minimum magnitude displayed is 2.5.

Coastal Water Temperatures

Place Temperature
No Stations Reporting

Nearby Weather Stations